Time;durP1;ratioP1;P1;durP2;ratioP2;P2;SDS_P1;SDS_P2;PMS_P1;PMS_P2;Temp;Humidity;BMP_temperature;BMP_pressure;BME280_temperature;BME280_humidity;BME280_pressure;Samples;Min_cycle;Max_cycle;Signal;HPM_P1;HPM_P2
2023/08/29 00:00:34;;;;;;;;;;;;;;;;;;5091143;28;20427;-71
2023/08/29 00:03:03;;;;;;;;;;;;;;;;;;5091315;28;20364;-72
2023/08/29 00:09:21;;;;;;;;;;;;;;;;;;5111948;27;20272;-70
2023/08/29 00:11:47;;;;;;;;;;;;;;;;;;5111271;28;20002;-71
2023/08/29 00:14:34;;;;;;;;;;;;;;;;;;5111978;27;19916;-70
2023/08/29 00:17:00;;;;;;;;;;;;;;;;;;5110469;28;20455;-71
2023/08/29 00:19:26;;;;;;;;;;;;;;;;;;5111168;28;19908;-70
2023/08/29 00:21:52;;;;;;;;;;;;;;;;;;5111615;28;19998;-71
2023/08/29 00:24:18;;;;;;;;;;;;;;;;;;5111489;28;20276;-71
2023/08/29 00:26:45;;;;;;;;;;;;;;;;;;5111117;28;20276;-71
2023/08/29 00:29:11;;;;;;;;;;;;;;;;;;5111531;28;19922;-71
2023/08/29 00:37:56;;;;;;;;;;;;;;;;;;5091581;27;19920;-71
2023/08/29 00:40:22;;;;;;;;;;;;;;;;;;5090863;28;19935;-71
2023/08/29 00:42:47;;;;;;;;;;;;;;;;;;5091287;28;19959;-71
2023/08/29 00:45:13;;;;;;;;;;;;;;;;;;5089877;28;19920;-71
2023/08/29 00:47:39;;;;;;;;;;;;;;;;;;5090719;28;19915;-71
2023/08/29 00:50:05;;;;;;;;;;;;;;;;;;5090408;28;19954;-71
2023/08/29 00:52:31;;;;;;;;;;;;;;;;;;5091113;28;19909;-71
2023/08/29 00:56:23;;;;;;;;;;;;;;;;;;5112103;27;19916;-71
2023/08/29 00:58:49;;;;;;;;;;;;;;;;;;5111961;28;19934;-71
2023/08/29 01:02:42;;;;;;;;;;;;;;;;;;5112022;27;20379;-71
2023/08/29 01:05:07;;;;;;;;;;;;;;;;;;5112242;28;19999;-71
2023/08/29 01:07:33;;;;;;;;;;;;;;;;;;5111217;28;19931;-71
2023/08/29 01:10:40;;;;;;;;;;;;;;;;;;5091461;27;19916;-71
2023/08/29 01:14:35;;;;;;;;;;;;;;;;;;5091408;27;19916;-71
2023/08/29 01:19:23;;;;;;;;;;;;;;;;;;5111731;27;19916;-71
2023/08/29 01:21:49;;;;;;;;;;;;;;;;;;5111235;28;19912;-71
2023/08/29 01:26:38;;;;;;;;;;;;;;;;;;5112428;27;19916;-71
2023/08/29 01:29:04;;;;;;;;;;;;;;;;;;5111436;28;19947;-73
2023/08/29 01:31:30;;;;;;;;;;;;;;;;;;5111629;28;19931;-73
2023/08/29 01:33:56;;;;;;;;;;;;;;;;;;5111615;28;19985;-73
2023/08/29 01:37:24;;;;;;;;;;;;;;;;;;5111754;27;19915;-72
2023/08/29 01:39:50;;;;;;;;;;;;;;;;;;5111723;28;19912;-72
2023/08/29 01:42:15;;;;;;;;;;;;;;;;;;5111207;28;20276;-72
2023/08/29 01:44:41;;;;;;;;;;;;;;;;;;5111688;28;20329;-72
2023/08/29 01:47:07;;;;;;;;;;;;;;;;;;5110315;28;20425;-72
2023/08/29 01:49:33;;;;;;;;;;;;;;;;;;5111188;28;19912;-72
2023/08/29 01:51:59;;;;;;;;;;;;;;;;;;5111451;28;20002;-71
2023/08/29 01:55:03;;;;;;;;;;;;;;;;;;5111893;27;19922;-71
2023/08/29 01:57:29;;;;;;;;;;;;;;;;;;5109906;28;20398;-71
2023/08/29 01:59:55;;;;;;;;;;;;;;;;;;5111586;28;19912;-71
2023/08/29 02:02:21;;;;;;;;;;;;;;;;;;5111604;28;19908;-71
2023/08/29 02:08:23;;;;;;;;;;;;;;;;;;5112447;27;19916;-71
2023/08/29 02:10:49;;;;;;;;;;;;;;;;;;5111462;28;19918;-72
2023/08/29 02:13:51;;;;;;;;;;;;;;;;;;5092243;27;19923;-71
2023/08/29 02:16:54;;;;;;;;;;;;;;;;;;5112554;27;19912;-71
2023/08/29 02:19:20;;;;;;;;;;;;;;;;;;5111305;28;20007;-71
2023/08/29 02:21:46;;;;;;;;;;;;;;;;;;5111579;28;19908;-71
2023/08/29 02:24:12;;;;;;;;;;;;;;;;;;5111330;28;19931;-71
2023/08/29 02:26:38;;;;;;;;;;;;;;;;;;5110248;28;19908;-72
2023/08/29 02:29:04;;;;;;;;;;;;;;;;;;5111623;28;19999;-71
2023/08/29 02:31:29;;;;;;;;;;;;;;;;;;5111039;28;20275;-72
2023/08/29 02:33:55;;;;;;;;;;;;;;;;;;5111504;28;20275;-72
2023/08/29 02:38:36;;;;;;;;;;;;;;;;;;5112000;27;19922;-72
2023/08/29 02:41:02;;;;;;;;;;;;;;;;;;5112011;28;19912;-71
2023/08/29 02:43:28;;;;;;;;;;;;;;;;;;5111583;28;19908;-71
2023/08/29 02:45:54;;;;;;;;;;;;;;;;;;5111396;28;19908;-71
2023/08/29 02:50:12;;;;;;;;;;;;;;;;;;5112603;27;19916;-71
2023/08/29 02:52:38;;;;;;;;;;;;;;;;;;5111251;28;20003;-72
2023/08/29 02:55:04;;;;;;;;;;;;;;;;;;5111720;28;19969;-73
2023/08/29 02:57:30;;;;;;;;;;;;;;;;;;5111670;28;20017;-73
2023/08/29 03:00:20;;;;;;;;;;;;;;;;;;5111352;27;19916;-71
2023/08/29 03:02:46;;;;;;;;;;;;;;;;;;5112100;28;19994;-71
2023/08/29 03:05:12;;;;;;;;;;;;;;;;;;5110405;28;19908;-71
2023/08/29 03:07:37;;;;;;;;;;;;;;;;;;5111204;28;19922;-71
2023/08/29 03:10:03;;;;;;;;;;;;;;;;;;5110249;28;19908;-71
2023/08/29 03:12:29;;;;;;;;;;;;;;;;;;5111385;28;19955;-70
2023/08/29 03:14:55;;;;;;;;;;;;;;;;;;5110999;28;19908;-71
2023/08/29 03:17:21;;;;;;;;;;;;;;;;;;5111329;28;19983;-71
2023/08/29 03:20:17;;;;;;;;;;;;;;;;;;5092168;27;19947;-71
2023/08/29 03:24:15;;;;;;;;;;;;;;;;;;5091768;27;19912;-71
2023/08/29 03:26:41;;;;;;;;;;;;;;;;;;5091315;28;20429;-71
2023/08/29 03:29:07;;;;;;;;;;;;;;;;;;5089546;28;19908;-71
2023/08/29 03:31:33;;;;;;;;;;;;;;;;;;5090052;28;19995;-71
2023/08/29 03:33:59;;;;;;;;;;;;;;;;;;5089927;28;19909;-71
2023/08/29 03:36:26;;;;;;;;;;;;;;;;;;5090927;28;20298;-71
2023/08/29 03:39:10;;;;;;;;;;;;;;;;;;5091364;28;19923;-71
2023/08/29 03:41:37;;;;;;;;;;;;;;;;;;5091474;28;20335;-72
2023/08/29 03:47:49;;;;;;;;;;;;;;;;;;5112364;27;19916;-71
2023/08/29 03:50:15;;;;;;;;;;;;;;;;;;5111355;28;19955;-71
2023/08/29 03:52:41;;;;;;;;;;;;;;;;;;5111629;28;19915;-71
2023/08/29 03:55:07;;;;;;;;;;;;;;;;;;5111572;28;20052;-71
2023/08/29 03:59:16;;;;;;;;;;;;;;;;;;5112416;27;20364;-71
2023/08/29 04:04:05;;;;;;;;;;;;;;;;;;5111655;27;19916;-71
2023/08/29 04:10:03;;;;;;;;;;;;;;;;;;5111570;27;19916;-71
2023/08/29 04:14:50;;;;;;;;;;;;;;;;;;5112401;27;20364;-71
2023/08/29 04:17:56;;;;;;;;;;;;;;;;;;5111565;27;19938;-71
2023/08/29 04:22:38;;;;;;;;;;;;;;;;;;5071201;28;19923;-71
2023/08/29 04:26:57;;;;;;;;;;;;;;;;;;5111772;27;20416;-71
2023/08/29 04:29:23;;;;;;;;;;;;;;;;;;5111766;28;20018;-71
2023/08/29 04:35:10;;;;;;;;;;;;;;;;;;5092116;27;19912;-71
2023/08/29 04:42:44;;;;;;;;;;;;;;;;;;5174072;27;19911;-71
2023/08/29 04:45:10;;;;;;;;;;;;;;;;;;5173639;27;19911;-71
2023/08/29 04:47:36;;;;;;;;;;;;;;;;;;5173675;27;20006;-71
2023/08/29 04:50:03;;;;;;;;;;;;;;;;;;5173610;27;19918;-70
2023/08/29 04:53:01;;;;;;;;;;;;;;;;;;5090943;27;19923;-70
2023/08/29 04:55:27;;;;;;;;;;;;;;;;;;5091621;28;20269;-70
2023/08/29 04:57:56;;;;;;;;;;;;;;;;;;5091678;28;19955;-71
2023/08/29 05:00:22;;;;;;;;;;;;;;;;;;5089641;28;19909;-71
2023/08/29 05:04:10;;;;;;;;;;;;;;;;;;5153051;27;19919;-71
2023/08/29 05:06:36;;;;;;;;;;;;;;;;;;5133981;27;20035;-71
2023/08/29 05:09:01;;;;;;;;;;;;;;;;;;5152769;27;20307;-71
2023/08/29 05:11:27;;;;;;;;;;;;;;;;;;5134292;27;20264;-71
2023/08/29 05:15:35;;;;;;;;;;;;;;;;;;5112171;27;19916;-72
2023/08/29 05:18:00;;;;;;;;;;;;;;;;;;5111735;28;20006;-72
2023/08/29 05:22:53;;;;;;;;;;;;;;;;;;5091413;28;19916;-70
2023/08/29 05:25:19;;;;;;;;;;;;;;;;;;5091273;28;19987;-70
2023/08/29 05:29:02;;;;;;;;;;;;;;;;;;5111404;27;19912;-72
2023/08/29 05:31:29;;;;;;;;;;;;;;;;;;5111662;28;19951;-71
2023/08/29 05:33:55;;;;;;;;;;;;;;;;;;5111536;28;20380;-71
2023/08/29 05:36:21;;;;;;;;;;;;;;;;;;5112052;28;19912;-70
2023/08/29 05:38:47;;;;;;;;;;;;;;;;;;5112121;28;19908;-71
2023/08/29 05:41:13;;;;;;;;;;;;;;;;;;5112523;28;19912;-71
2023/08/29 05:45:46;;;;;;;;;;;;;;;;;;5112313;27;19916;-71
2023/08/29 05:48:13;;;;;;;;;;;;;;;;;;5107567;28;19954;-70
2023/08/29 05:50:40;;;;;;;;;;;;;;;;;;5109929;28;20336;-72
2023/08/29 05:53:58;;;;;;;;;;;;;;;;;;5111807;27;19916;-70
2023/08/29 05:56:24;;;;;;;;;;;;;;;;;;5110581;28;19918;-70
2023/08/29 05:58:50;;;;;;;;;;;;;;;;;;5111236;28;19961;-69
2023/08/29 06:01:16;;;;;;;;;;;;;;;;;;5111445;28;19916;-69
2023/08/29 06:08:23;;;;;;;;;;;;;;;;;;5049835;28;20072;-67
2023/08/29 06:10:49;;;;;;;;;;;;;;;;;;5049952;28;19999;-70
2023/08/29 06:13:15;;;;;;;;;;;;;;;;;;5050420;28;19913;-69
2023/08/29 06:17:14;;;;;;;;;;;;;;;;;;5110081;27;19922;-68
2023/08/29 06:19:40;;;;;;;;;;;;;;;;;;5109388;28;20003;-69
2023/08/29 06:24:26;;;;;;;;;;;;;;;;;;5108519;27;19920;-68
2023/08/29 06:28:07;;;;;;;;;;;;;;;;;;5089318;27;19921;-68
2023/08/29 06:32:58;;;;;;;;;;;;;;;;;;5090846;27;19918;-68
2023/08/29 06:35:25;;;;;;;;;;;;;;;;;;5074821;28;20339;-68
2023/08/29 06:40:09;;;;;;;;;;;;;;;;;;5090925;28;19916;-69
2023/08/29 06:42:35;;;;;;;;;;;;;;;;;;5090931;28;19958;-68
2023/08/29 06:45:01;;;;;;;;;;;;;;;;;;5090476;28;19988;-68
2023/08/29 06:47:27;;;;;;;;;;;;;;;;;;5090901;28;19908;-68
2023/08/29 06:49:54;;;;;;;;;;;;;;;;;;5090793;28;19912;-68
2023/08/29 06:52:20;;;;;;;;;;;;;;;;;;5088970;28;19909;-68
2023/08/29 06:54:46;;;;;;;;;;;;;;;;;;5090761;28;19970;-68
2023/08/29 06:57:12;;;;;;;;;;;;;;;;;;5090890;28;20330;-69
2023/08/29 06:59:38;;;;;;;;;;;;;;;;;;5085836;28;20371;-69
2023/08/29 07:02:04;;;;;;;;;;;;;;;;;;5090012;28;20391;-68
2023/08/29 07:04:30;;;;;;;;;;;;;;;;;;5089583;28;20269;-68
2023/08/29 07:06:56;;;;;;;;;;;;;;;;;;5082134;28;20425;-68
2023/08/29 07:09:22;;;;;;;;;;;;;;;;;;5080271;28;19916;-70
2023/08/29 07:13:32;;;;;;;;;;;;;;;;;;5139583;27;19916;-68
2023/08/29 07:15:58;;;;;;;;;;;;;;;;;;5130491;28;19999;-69
2023/08/29 07:18:39;;;;;;;;;;;;;;;;;;5069514;28;19912;-68
2023/08/29 07:21:06;;;;;;;;;;;;;;;;;;5068827;28;20026;-69
2023/08/29 07:23:32;;;;;;;;;;;;;;;;;;5070378;28;19944;-67
2023/08/29 07:27:19;;;;;;;;;;;;;;;;;;5070369;28;20274;-67
2023/08/29 07:29:45;;;;;;;;;;;;;;;;;;5070715;28;19912;-69
2023/08/29 07:32:11;;;;;;;;;;;;;;;;;;5070227;28;20315;-68
2023/08/29 07:34:39;;;;;;;;;;;;;;;;;;5070236;28;20368;-69
2023/08/29 07:37:05;;;;;;;;;;;;;;;;;;5069421;28;20366;-67
2023/08/29 07:39:32;;;;;;;;;;;;;;;;;;5068891;28;19931;-67
2023/08/29 07:41:58;;;;;;;;;;;;;;;;;;5067740;28;20340;-68
2023/08/29 07:44:24;;;;;;;;;;;;;;;;;;5067688;28;19909;-67
2023/08/29 07:46:50;;;;;;;;;;;;;;;;;;5068983;28;19921;-68
2023/08/29 07:49:20;;;;;;;;;;;;;;;;;;5069410;28;19961;-69
2023/08/29 07:51:46;;;;;;;;;;;;;;;;;;5070068;28;20262;-68
2023/08/29 07:54:12;;;;;;;;;;;;;;;;;;5070147;28;19916;-68
2023/08/29 07:56:38;;;;;;;;;;;;;;;;;;5068958;28;19909;-69
2023/08/29 07:59:04;;;;;;;;;;;;;;;;;;5079957;28;20011;-69
2023/08/29 08:01:29;;;;;;;;;;;;;;;;;;5068743;28;19913;-68
2023/08/29 08:03:55;;;;;;;;;;;;;;;;;;5068985;28;19908;-69
2023/08/29 08:06:21;;;;;;;;;;;;;;;;;;5068273;28;20031;-68
2023/08/29 08:08:47;;;;;;;;;;;;;;;;;;5069179;28;19916;-69
2023/08/29 08:11:30;;;;;;;;;;;;;;;;;;5090653;27;19917;-66
2023/08/29 08:34:55;;;;;;;;;;;;;;;;;;5111001;27;19926;-73
2023/08/29 08:37:21;;;;;;;;;;;;;;;;;;5119308;27;19971;-70
2023/08/29 08:39:48;;;;;;;;;;;;;;;;;;5118805;28;20018;-72
2023/08/29 08:42:14;;;;;;;;;;;;;;;;;;5113186;28;19918;-70
2023/08/29 08:44:40;;;;;;;;;;;;;;;;;;5127326;28;19908;-71
2023/08/29 08:47:06;;;;;;;;;;;;;;;;;;5129844;27;20270;-70
2023/08/29 08:49:32;;;;;;;;;;;;;;;;;;5128053;28;20340;-71
2023/08/29 08:51:58;;;;;;;;;;;;;;;;;;5126648;27;20389;-71
2023/08/29 08:54:25;;;;;;;;;;;;;;;;;;5124183;28;20015;-72
2023/08/29 08:56:51;;;;;;;;;;;;;;;;;;5125758;27;19911;-73
2023/08/29 08:59:16;;;;;;;;;;;;;;;;;;5119587;28;19912;-71
2023/08/29 09:01:42;;;;;;;;;;;;;;;;;;5122104;27;19919;-74
2023/08/29 09:04:08;;;;;;;;;;;;;;;;;;5129588;27;19907;-73
2023/08/29 09:06:34;;;;;;;;;;;;;;;;;;5128778;27;19916;-73
2023/08/29 09:09:00;;;;;;;;;;;;;;;;;;5127218;27;19922;-73
2023/08/29 09:11:26;;;;;;;;;;;;;;;;;;5116757;28;19998;-70
2023/08/29 09:13:52;;;;;;;;;;;;;;;;;;5118307;28;19924;-72
2023/08/29 09:16:18;;;;;;;;;;;;;;;;;;5122530;27;19908;-71
2023/08/29 09:18:44;;;;;;;;;;;;;;;;;;5126140;28;19916;-70
2023/08/29 09:21:10;;;;;;;;;;;;;;;;;;5122397;28;19947;-69
2023/08/29 09:23:36;;;;;;;;;;;;;;;;;;5125711;28;20359;-70
2023/08/29 09:26:02;;;;;;;;;;;;;;;;;;5121143;28;20414;-72
2023/08/29 09:28:28;;;;;;;;;;;;;;;;;;5119259;27;20382;-71
2023/08/29 09:30:54;;;;;;;;;;;;;;;;;;5127429;28;20374;-71
2023/08/29 09:33:21;;;;;;;;;;;;;;;;;;5119367;28;19965;-70
2023/08/29 09:35:47;;;;;;;;;;;;;;;;;;5121721;27;19912;-71
2023/08/29 09:38:13;;;;;;;;;;;;;;;;;;5116790;27;20289;-69
2023/08/29 09:40:39;;;;;;;;;;;;;;;;;;5111192;28;20286;-70
2023/08/29 09:43:05;;;;;;;;;;;;;;;;;;5120375;27;20335;-69
2023/08/29 09:45:31;;;;;;;;;;;;;;;;;;5108548;28;20295;-70
2023/08/29 09:47:57;;;;;;;;;;;;;;;;;;5102077;28;19939;-70
2023/08/29 09:50:23;;;;;;;;;;;;;;;;;;5109331;28;19912;-69
2023/08/29 09:52:49;;;;;;;;;;;;;;;;;;5102434;28;20096;-70
2023/08/29 09:55:15;;;;;;;;;;;;;;;;;;5101319;28;19968;-68
2023/08/29 09:57:41;;;;;;;;;;;;;;;;;;5109068;28;20316;-69
2023/08/29 10:00:09;;;;;;;;;;;;;;;;;;5108333;28;20307;-69
2023/08/29 10:02:35;;;;;;;;;;;;;;;;;;5107438;28;20006;-71
2023/08/29 10:05:01;;;;;;;;;;;;;;;;;;5113247;28;20367;-71
2023/08/29 10:07:27;;;;;;;;;;;;;;;;;;5109368;28;20377;-71
2023/08/29 10:09:53;;;;;;;;;;;;;;;;;;5108916;28;19915;-71
2023/08/29 10:12:19;;;;;;;;;;;;;;;;;;5108480;27;19912;-73
2023/08/29 10:14:46;;;;;;;;;;;;;;;;;;5110708;28;19924;-72
2023/08/29 10:17:12;;;;;;;;;;;;;;;;;;5110825;28;20313;-72
2023/08/29 10:19:38;;;;;;;;;;;;;;;;;;5109659;28;19908;-71
2023/08/29 10:22:04;;;;;;;;;;;;;;;;;;5108874;28;19950;-71
2023/08/29 10:24:32;;;;;;;;;;;;;;;;;;5110919;28;20341;-71
2023/08/29 10:26:59;;;;;;;;;;;;;;;;;;5102953;28;19920;-71
2023/08/29 10:29:25;;;;;;;;;;;;;;;;;;5102725;28;20003;-69
2023/08/29 10:31:51;;;;;;;;;;;;;;;;;;5108920;28;20410;-70
2023/08/29 10:34:19;;;;;;;;;;;;;;;;;;5106375;28;19920;-70
2023/08/29 10:36:46;;;;;;;;;;;;;;;;;;5110356;28;19953;-71
2023/08/29 10:39:13;;;;;;;;;;;;;;;;;;5109812;28;19961;-72
2023/08/29 10:41:39;;;;;;;;;;;;;;;;;;5104286;28;19957;-70
2023/08/29 10:44:05;;;;;;;;;;;;;;;;;;5103620;28;19916;-68
2023/08/29 10:46:31;;;;;;;;;;;;;;;;;;5093966;28;19958;-72
2023/08/29 10:48:57;;;;;;;;;;;;;;;;;;5099677;28;20031;-69
2023/08/29 10:51:24;;;;;;;;;;;;;;;;;;5098755;28;19920;-68
2023/08/29 10:53:54;;;;;;;;;;;;;;;;;;5104331;28;19927;-69
2023/08/29 10:56:20;;;;;;;;;;;;;;;;;;5104435;28;20015;-69
2023/08/29 10:58:47;;;;;;;;;;;;;;;;;;5105623;28;19911;-69
2023/08/29 11:01:14;;;;;;;;;;;;;;;;;;5096421;28;19919;-69
2023/08/29 11:03:40;;;;;;;;;;;;;;;;;;5101056;28;19912;-69
2023/08/29 11:06:06;;;;;;;;;;;;;;;;;;5106656;28;20073;-69
2023/08/29 11:08:33;;;;;;;;;;;;;;;;;;5101248;28;19916;-70
2023/08/29 11:10:59;;;;;;;;;;;;;;;;;;5100813;28;19912;-69
2023/08/29 11:13:25;;;;;;;;;;;;;;;;;;5093482;28;19924;-70
2023/08/29 11:15:51;;;;;;;;;;;;;;;;;;5104833;28;19947;-69
2023/08/29 11:18:18;;;;;;;;;;;;;;;;;;5106455;28;19971;-68
2023/08/29 11:20:44;;;;;;;;;;;;;;;;;;5106629;28;19916;-69
2023/08/29 11:23:10;;;;;;;;;;;;;;;;;;5100830;28;19961;-68
2023/08/29 11:25:37;;;;;;;;;;;;;;;;;;5102616;28;19955;-68
2023/08/29 11:28:03;;;;;;;;;;;;;;;;;;5108195;28;19963;-69
2023/08/29 11:30:29;;;;;;;;;;;;;;;;;;5104108;28;20425;-69
2023/08/29 11:32:55;;;;;;;;;;;;;;;;;;5111933;28;20365;-70
2023/08/29 11:35:21;;;;;;;;;;;;;;;;;;5104573;28;19912;-70
2023/08/29 11:37:47;;;;;;;;;;;;;;;;;;5107455;28;20373;-70
2023/08/29 11:40:14;;;;;;;;;;;;;;;;;;5102255;28;19912;-71
2023/08/29 11:42:40;;;;;;;;;;;;;;;;;;5108185;28;19918;-71
2023/08/29 11:45:06;;;;;;;;;;;;;;;;;;5107725;28;20394;-70
2023/08/29 11:47:33;;;;;;;;;;;;;;;;;;5108244;28;19908;-71
2023/08/29 11:49:59;;;;;;;;;;;;;;;;;;5099554;28;19918;-72
2023/08/29 11:52:25;;;;;;;;;;;;;;;;;;5111228;28;20013;-68
2023/08/29 11:54:55;;;;;;;;;;;;;;;;;;5104589;28;20599;-70
2023/08/29 11:57:21;;;;;;;;;;;;;;;;;;5101497;28;20045;-69
2023/08/29 11:59:47;;;;;;;;;;;;;;;;;;5094686;28;20331;-70
2023/08/29 12:02:13;;;;;;;;;;;;;;;;;;5106829;28;19965;-70
2023/08/29 12:04:39;;;;;;;;;;;;;;;;;;5107382;28;20049;-70
2023/08/29 12:07:06;;;;;;;;;;;;;;;;;;5112841;28;20378;-67
2023/08/29 12:09:32;;;;;;;;;;;;;;;;;;5111829;28;19915;-68
2023/08/29 12:11:57;;;;;;;;;;;;;;;;;;5111046;28;19912;-67
2023/08/29 12:14:24;;;;;;;;;;;;;;;;;;5112637;28;19923;-68
2023/08/29 12:16:49;;;;;;;;;;;;;;;;;;5106152;28;20374;-68
2023/08/29 12:19:17;;;;;;;;;;;;;;;;;;5110939;28;19958;-69
2023/08/29 12:21:42;;;;;;;;;;;;;;;;;;5106961;28;19912;-69
2023/08/29 12:24:09;;;;;;;;;;;;;;;;;;5102925;28;19919;-69
2023/08/29 12:26:35;;;;;;;;;;;;;;;;;;5093591;28;20011;-71
2023/08/29 12:29:01;;;;;;;;;;;;;;;;;;5093915;28;19955;-70
2023/08/29 12:31:27;;;;;;;;;;;;;;;;;;5093870;28;19908;-71
2023/08/29 12:33:53;;;;;;;;;;;;;;;;;;5095012;28;19920;-73
2023/08/29 12:36:19;;;;;;;;;;;;;;;;;;5094399;28;19991;-71
2023/08/29 12:38:44;;;;;;;;;;;;;;;;;;5093390;28;20358;-70
2023/08/29 12:41:12;;;;;;;;;;;;;;;;;;5094022;28;20287;-71
2023/08/29 12:43:38;;;;;;;;;;;;;;;;;;5093906;28;19908;-70
2023/08/29 12:46:04;;;;;;;;;;;;;;;;;;5093399;28;20286;-71
2023/08/29 12:48:30;;;;;;;;;;;;;;;;;;5093938;28;20375;-71
2023/08/29 12:50:56;;;;;;;;;;;;;;;;;;5093912;28;19908;-71
2023/08/29 12:53:22;;;;;;;;;;;;;;;;;;5093362;28;19923;-71
2023/08/29 12:55:50;;;;;;;;;;;;;;;;;;5093654;28;19908;-70
2023/08/29 12:58:17;;;;;;;;;;;;;;;;;;5093693;28;19969;-71
2023/08/29 13:00:43;;;;;;;;;;;;;;;;;;5093731;28;20397;-70
2023/08/29 13:03:09;;;;;;;;;;;;;;;;;;5094011;28;19908;-70
2023/08/29 13:05:35;;;;;;;;;;;;;;;;;;5093663;28;19908;-70
2023/08/29 13:08:03;;;;;;;;;;;;;;;;;;5075660;28;19962;-70
2023/08/29 13:10:28;;;;;;;;;;;;;;;;;;5093622;28;20004;-71
2023/08/29 13:12:54;;;;;;;;;;;;;;;;;;5093405;28;20002;-70
2023/08/29 13:15:21;;;;;;;;;;;;;;;;;;5093046;28;19912;-70
2023/08/29 13:17:49;;;;;;;;;;;;;;;;;;5093427;28;19915;-69
2023/08/29 13:20:15;;;;;;;;;;;;;;;;;;5095311;28;20367;-70
2023/08/29 13:22:41;;;;;;;;;;;;;;;;;;5097383;28;19919;-70
2023/08/29 13:25:07;;;;;;;;;;;;;;;;;;5079011;28;19908;-71
2023/08/29 13:27:33;;;;;;;;;;;;;;;;;;5096981;28;19909;-71
2023/08/29 13:29:59;;;;;;;;;;;;;;;;;;5097223;28;19943;-71
2023/08/29 13:32:25;;;;;;;;;;;;;;;;;;5098241;28;19908;-71
2023/08/29 13:34:51;;;;;;;;;;;;;;;;;;5096577;28;20021;-71
2023/08/29 13:37:17;;;;;;;;;;;;;;;;;;5097808;28;20312;-72
2023/08/29 13:39:44;;;;;;;;;;;;;;;;;;5097162;28;19908;-71
2023/08/29 13:42:10;;;;;;;;;;;;;;;;;;5078636;28;19908;-71
2023/08/29 13:44:36;;;;;;;;;;;;;;;;;;5096880;28;19908;-72
2023/08/29 13:47:01;;;;;;;;;;;;;;;;;;5096921;28;19968;-72
2023/08/29 13:49:27;;;;;;;;;;;;;;;;;;5079078;28;20339;-72
2023/08/29 13:51:54;;;;;;;;;;;;;;;;;;5097447;28;19912;-72
2023/08/29 13:54:20;;;;;;;;;;;;;;;;;;5096816;28;20291;-69
2023/08/29 13:56:47;;;;;;;;;;;;;;;;;;5095829;28;19908;-71
2023/08/29 13:59:13;;;;;;;;;;;;;;;;;;5096443;28;19908;-72
2023/08/29 14:01:39;;;;;;;;;;;;;;;;;;5078376;28;20293;-70
2023/08/29 14:04:05;;;;;;;;;;;;;;;;;;5096104;28;20325;-71
2023/08/29 14:06:31;;;;;;;;;;;;;;;;;;5097416;28;19908;-71
2023/08/29 14:08:57;;;;;;;;;;;;;;;;;;5096958;28;19915;-71
2023/08/29 14:11:23;;;;;;;;;;;;;;;;;;5096800;28;19912;-71
2023/08/29 14:13:49;;;;;;;;;;;;;;;;;;5096585;28;20402;-70
2023/08/29 14:16:15;;;;;;;;;;;;;;;;;;5078363;28;20363;-70
2023/08/29 14:18:42;;;;;;;;;;;;;;;;;;5095756;28;19954;-69
2023/08/29 14:21:08;;;;;;;;;;;;;;;;;;5096187;28;19923;-69
2023/08/29 14:23:34;;;;;;;;;;;;;;;;;;5095750;28;19908;-69
2023/08/29 14:26:00;;;;;;;;;;;;;;;;;;5096240;28;19916;-69
2023/08/29 14:28:26;;;;;;;;;;;;;;;;;;5096062;28;20287;-70
2023/08/29 14:30:52;;;;;;;;;;;;;;;;;;5077248;28;19951;-70
2023/08/29 14:33:17;;;;;;;;;;;;;;;;;;5095506;28;19927;-70
2023/08/29 14:35:43;;;;;;;;;;;;;;;;;;5095746;28;20048;-71
2023/08/29 14:38:09;;;;;;;;;;;;;;;;;;5096559;28;19974;-71
2023/08/29 14:40:35;;;;;;;;;;;;;;;;;;5095788;28;19912;-71
2023/08/29 14:43:02;;;;;;;;;;;;;;;;;;5095780;28;19908;-72
2023/08/29 14:45:28;;;;;;;;;;;;;;;;;;5095274;28;19908;-71
2023/08/29 14:47:54;;;;;;;;;;;;;;;;;;5095624;28;19963;-71
2023/08/29 14:50:19;;;;;;;;;;;;;;;;;;5095591;28;19908;-71
2023/08/29 14:52:45;;;;;;;;;;;;;;;;;;5095196;28;19999;-71
2023/08/29 14:55:11;;;;;;;;;;;;;;;;;;5095811;28;19912;-71
2023/08/29 14:57:40;;;;;;;;;;;;;;;;;;5095430;28;19915;-71
2023/08/29 15:00:07;;;;;;;;;;;;;;;;;;5094957;28;19944;-71
2023/08/29 15:02:34;;;;;;;;;;;;;;;;;;5095660;28;19987;-71
2023/08/29 15:05:00;;;;;;;;;;;;;;;;;;5095432;28;19962;-71
2023/08/29 15:07:25;;;;;;;;;;;;;;;;;;5094940;28;19908;-71
2023/08/29 15:09:51;;;;;;;;;;;;;;;;;;5095211;28;19908;-71
2023/08/29 15:12:21;;;;;;;;;;;;;;;;;;5077047;28;19954;-71
2023/08/29 15:14:47;;;;;;;;;;;;;;;;;;5094769;28;20291;-71
2023/08/29 15:17:13;;;;;;;;;;;;;;;;;;5095069;28;19908;-71
2023/08/29 15:19:39;;;;;;;;;;;;;;;;;;5095061;28;19956;-71
2023/08/29 15:23:47;;;;;;;;;;;;;;;;;;5153160;27;20018;-70
2023/08/29 15:26:13;;;;;;;;;;;;;;;;;;5153122;27;20305;-72
2023/08/29 15:28:38;;;;;;;;;;;;;;;;;;5152528;27;19907;-72
2023/08/29 15:31:05;;;;;;;;;;;;;;;;;;5152939;27;19915;-70
2023/08/29 15:33:31;;;;;;;;;;;;;;;;;;5152637;27;19907;-70
2023/08/29 15:35:57;;;;;;;;;;;;;;;;;;5152332;27;19959;-70
2023/08/29 15:38:23;;;;;;;;;;;;;;;;;;5152889;27;19908;-72
2023/08/29 15:40:54;;;;;;;;;;;;;;;;;;5152647;27;19914;-70
2023/08/29 15:43:20;;;;;;;;;;;;;;;;;;5152702;27;19915;-70
2023/08/29 15:45:46;;;;;;;;;;;;;;;;;;5152469;27;20327;-70
2023/08/29 15:48:12;;;;;;;;;;;;;;;;;;5151977;27;19907;-71
2023/08/29 15:50:38;;;;;;;;;;;;;;;;;;5152341;27;20355;-70
2023/08/29 15:53:04;;;;;;;;;;;;;;;;;;5133666;27;19990;-69
2023/08/29 15:55:30;;;;;;;;;;;;;;;;;;5151938;27;20439;-71
2023/08/29 15:57:56;;;;;;;;;;;;;;;;;;5152169;27;20407;-71
2023/08/29 16:00:22;;;;;;;;;;;;;;;;;;5152244;27;20358;-71
2023/08/29 16:02:48;;;;;;;;;;;;;;;;;;5133224;27;20362;-71
2023/08/29 16:05:14;;;;;;;;;;;;;;;;;;5133505;27;20383;-71
2023/08/29 16:07:40;;;;;;;;;;;;;;;;;;5152105;27;20305;-71
2023/08/29 16:10:06;;;;;;;;;;;;;;;;;;5151750;27;20362;-71
2023/08/29 16:12:32;;;;;;;;;;;;;;;;;;5151873;27;19911;-71
2023/08/29 16:14:58;;;;;;;;;;;;;;;;;;5151967;27;19914;-71
2023/08/29 16:17:24;;;;;;;;;;;;;;;;;;5151058;27;19911;-71
2023/08/29 16:19:49;;;;;;;;;;;;;;;;;;5151966;27;19914;-72
2023/08/29 16:22:15;;;;;;;;;;;;;;;;;;5137566;27;19972;-71
2023/08/29 16:24:41;;;;;;;;;;;;;;;;;;5151337;27;20377;-73
2023/08/29 16:27:38;;;;;;;;;;;;;;;;;;5153016;27;19915;-70
2023/08/29 16:30:07;;;;;;;;;;;;;;;;;;5152930;27;19918;-71
2023/08/29 16:32:33;;;;;;;;;;;;;;;;;;5134017;27;20468;-70
2023/08/29 16:34:59;;;;;;;;;;;;;;;;;;5154657;27;19915;-72
2023/08/29 16:37:25;;;;;;;;;;;;;;;;;;5152577;27;20401;-71
2023/08/29 16:39:51;;;;;;;;;;;;;;;;;;5152834;27;19911;-71
2023/08/29 16:42:17;;;;;;;;;;;;;;;;;;5152775;27;19907;-71
2023/08/29 16:44:43;;;;;;;;;;;;;;;;;;5152115;27;20048;-70
2023/08/29 16:47:09;;;;;;;;;;;;;;;;;;5152653;27;20412;-71
2023/08/29 16:49:35;;;;;;;;;;;;;;;;;;5152490;27;19907;-71
2023/08/29 16:52:05;;;;;;;;;;;;;;;;;;5133432;27;19908;-72
2023/08/29 16:54:31;;;;;;;;;;;;;;;;;;5152176;27;19969;-72
2023/08/29 16:56:57;;;;;;;;;;;;;;;;;;5152520;27;20326;-70
2023/08/29 16:59:23;;;;;;;;;;;;;;;;;;5152454;27;20359;-71
2023/08/29 17:01:50;;;;;;;;;;;;;;;;;;5152228;27;20006;-71
2023/08/29 17:06:22;;;;;;;;;;;;;;;;;;5153024;27;20007;-71
2023/08/29 17:08:48;;;;;;;;;;;;;;;;;;5152909;27;19943;-70
2023/08/29 17:11:14;;;;;;;;;;;;;;;;;;5153011;27;20021;-71
2023/08/29 17:13:40;;;;;;;;;;;;;;;;;;5152310;27;19957;-70
2023/08/29 17:18:48;;;;;;;;;;;;;;;;;;5092311;28;20368;-71
2023/08/29 17:21:14;;;;;;;;;;;;;;;;;;5091591;28;20376;-70
2023/08/29 17:26:00;;;;;;;;;;;;;;;;;;5112135;27;20369;-69
2023/08/29 17:30:13;;;;;;;;;;;;;;;;;;5091536;27;19916;-70
2023/08/29 17:32:39;;;;;;;;;;;;;;;;;;5091327;28;20010;-70
2023/08/29 17:35:05;;;;;;;;;;;;;;;;;;5090760;28;20340;-69
2023/08/29 17:37:31;;;;;;;;;;;;;;;;;;5091414;28;19915;-70
2023/08/29 17:39:57;;;;;;;;;;;;;;;;;;5091555;28;19908;-70
2023/08/29 17:42:23;;;;;;;;;;;;;;;;;;5089561;28;19938;-70
2023/08/29 17:44:51;;;;;;;;;;;;;;;;;;5091300;28;19916;-71
2023/08/29 17:47:17;;;;;;;;;;;;;;;;;;5089818;28;19961;-71
2023/08/29 17:51:22;;;;;;;;;;;;;;;;;;5111454;27;19913;-70
2023/08/29 17:54:05;;;;;;;;;;;;;;;;;;5153499;27;19916;-71
2023/08/29 17:56:31;;;;;;;;;;;;;;;;;;5152656;27;19918;-70
2023/08/29 17:58:57;;;;;;;;;;;;;;;;;;5152709;27;20331;-70
2023/08/29 18:01:24;;;;;;;;;;;;;;;;;;5134043;27;20006;-71
2023/08/29 18:03:51;;;;;;;;;;;;;;;;;;5152480;27;19907;-70
2023/08/29 18:06:16;;;;;;;;;;;;;;;;;;5152823;27;19908;-71
2023/08/29 18:08:43;;;;;;;;;;;;;;;;;;5152652;27;19915;-69
2023/08/29 18:11:09;;;;;;;;;;;;;;;;;;5153032;27;19907;-70
2023/08/29 18:13:34;;;;;;;;;;;;;;;;;;5153918;27;19965;-71
2023/08/29 18:19:41;;;;;;;;;;;;;;;;;;5071225;28;20277;-70
2023/08/29 18:22:07;;;;;;;;;;;;;;;;;;5071103;28;19913;-70
2023/08/29 18:24:33;;;;;;;;;;;;;;;;;;5070762;28;20004;-70
2023/08/29 18:26:59;;;;;;;;;;;;;;;;;;5072052;28;20033;-70
2023/08/29 18:30:51;;;;;;;;;;;;;;;;;;5057624;27;2090589;-71
2023/08/29 18:33:17;;;;;;;;;;;;;;;;;;5132321;28;20344;-70
2023/08/29 18:38:45;;;;;;;;;;;;;;;;;;5111380;27;19916;-69
2023/08/29 18:41:11;;;;;;;;;;;;;;;;;;5111530;28;19912;-69
2023/08/29 18:45:45;;;;;;;;;;;;;;;;;;5090762;27;20317;-69
2023/08/29 18:48:11;;;;;;;;;;;;;;;;;;5091365;28;19974;-70
2023/08/29 18:52:49;;;;;;;;;;;;;;;;;;5070649;28;20267;-70